sensor_id;sensor_type;location;lat;lon;timestamp;pressure;altitude;pressure_sealevel;temperature;humidity
73633;BME280;61927;50.080;14.418;2024-01-07T00:02:13;98903.34;;;1.33;81.78
73633;BME280;61927;50.080;14.418;2024-01-07T00:04:40;98898.84;;;1.63;81.22
73633;BME280;61927;50.080;14.418;2024-01-07T00:07:06;98902.16;;;1.68;80.98
73633;BME280;61927;50.080;14.418;2024-01-07T00:09:31;98912.75;;;1.38;80.62
73633;BME280;61927;50.080;14.418;2024-01-07T00:11:57;98911.22;;;1.31;81.49
73633;BME280;61927;50.080;14.418;2024-01-07T00:14:22;98910.94;;;1.14;81.72
73633;BME280;61927;50.080;14.418;2024-01-07T00:16:48;98916.97;;;1.16;81.71
73633;BME280;61927;50.080;14.418;2024-01-07T00:19:13;98911.97;;;1.08;81.99
73633;BME280;61927;50.080;14.418;2024-01-07T00:21:39;98909.56;;;1.02;82.28
73633;BME280;61927;50.080;14.418;2024-01-07T00:24:05;98916.00;;;0.92;82.28
73633;BME280;61927;50.080;14.418;2024-01-07T00:26:30;98916.03;;;0.90;82.91
73633;BME280;61927;50.080;14.418;2024-01-07T00:28:56;98928.38;;;0.85;81.47
73633;BME280;61927;50.080;14.418;2024-01-07T00:31:22;98921.78;;;1.02;82.20
73633;BME280;61927;50.080;14.418;2024-01-07T00:33:47;98922.09;;;1.19;82.02
73633;BME280;61927;50.080;14.418;2024-01-07T00:36:13;98915.16;;;1.18;81.14
73633;BME280;61927;50.080;14.418;2024-01-07T00:38:38;98932.69;;;1.14;81.61
73633;BME280;61927;50.080;14.418;2024-01-07T00:41:04;98927.78;;;1.32;81.11
73633;BME280;61927;50.080;14.418;2024-01-07T00:43:30;98931.84;;;1.14;82.16
73633;BME280;61927;50.080;14.418;2024-01-07T00:45:55;98934.09;;;0.98;81.75
73633;BME280;61927;50.080;14.418;2024-01-07T00:48:21;98938.34;;;1.01;81.39
73633;BME280;61927;50.080;14.418;2024-01-07T00:50:47;98939.41;;;0.95;81.72
73633;BME280;61927;50.080;14.418;2024-01-07T00:53:12;98937.16;;;0.83;81.81
73633;BME280;61927;50.080;14.418;2024-01-07T00:55:38;98941.34;;;0.88;82.14
73633;BME280;61927;50.080;14.418;2024-01-07T00:58:03;98940.44;;;0.89;82.11
73633;BME280;61927;50.080;14.418;2024-01-07T01:00:29;98946.34;;;0.96;81.53
73633;BME280;61927;50.080;14.418;2024-01-07T01:02:55;98944.16;;;0.82;81.29
73633;BME280;61927;50.080;14.418;2024-01-07T01:05:21;98945.91;;;0.82;81.59
73633;BME280;61927;50.080;14.418;2024-01-07T01:07:47;98958.09;;;0.81;82.08
73633;BME280;61927;50.080;14.418;2024-01-07T01:10:12;98952.88;;;0.81;81.77
73633;BME280;61927;50.080;14.418;2024-01-07T01:12:40;98949.50;;;0.78;81.29
73633;BME280;61927;50.080;14.418;2024-01-07T01:15:06;98953.16;;;0.72;81.14
73633;BME280;61927;50.080;14.418;2024-01-07T01:17:31;98946.31;;;0.68;82.45
73633;BME280;61927;50.080;14.418;2024-01-07T01:19:57;98960.59;;;0.86;81.62
73633;BME280;61927;50.080;14.418;2024-01-07T01:22:22;98956.16;;;0.88;82.20
73633;BME280;61927;50.080;14.418;2024-01-07T01:24:48;98963.50;;;0.75;82.45
73633;BME280;61927;50.080;14.418;2024-01-07T01:27:14;98957.47;;;0.73;81.51
73633;BME280;61927;50.080;14.418;2024-01-07T01:29:41;98962.31;;;0.57;82.58
73633;BME280;61927;50.080;14.418;2024-01-07T01:32:06;98966.41;;;0.66;81.71
73633;BME280;61927;50.080;14.418;2024-01-07T01:34:32;98965.94;;;0.81;81.45
73633;BME280;61927;50.080;14.418;2024-01-07T01:36:58;98967.38;;;0.91;80.94
73633;BME280;61927;50.080;14.418;2024-01-07T01:39:23;98968.09;;;0.67;81.62
73633;BME280;61927;50.080;14.418;2024-01-07T01:41:49;98967.84;;;0.47;81.71
73633;BME280;61927;50.080;14.418;2024-01-07T01:44:14;98965.06;;;0.53;82.11
73633;BME280;61927;50.080;14.418;2024-01-07T01:46:40;98971.56;;;0.68;80.78
73633;BME280;61927;50.080;14.418;2024-01-07T01:49:07;98967.78;;;0.48;81.03
73633;BME280;61927;50.080;14.418;2024-01-07T01:51:34;98970.44;;;0.47;80.32
73633;BME280;61927;50.080;14.418;2024-01-07T01:54:01;98969.09;;;0.34;79.99
73633;BME280;61927;50.080;14.418;2024-01-07T01:56:28;98972.91;;;0.22;81.27
73633;BME280;61927;50.080;14.418;2024-01-07T01:58:55;98973.06;;;0.47;80.49
73633;BME280;61927;50.080;14.418;2024-01-07T02:01:21;98977.19;;;0.54;79.41
73633;BME280;61927;50.080;14.418;2024-01-07T02:03:48;98983.22;;;0.26;79.71
73633;BME280;61927;50.080;14.418;2024-01-07T02:06:15;98979.94;;;0.18;79.53
73633;BME280;61927;50.080;14.418;2024-01-07T02:08:41;98984.03;;;0.28;78.50
73633;BME280;61927;50.080;14.418;2024-01-07T02:11:21;98977.81;;;0.32;78.81
73633;BME280;61927;50.080;14.418;2024-01-07T02:13:47;98985.41;;;0.09;78.55
73633;BME280;61927;50.080;14.418;2024-01-07T02:16:13;98989.78;;;0.09;78.69
73633;BME280;61927;50.080;14.418;2024-01-07T02:18:41;98978.38;;;0.13;78.65
73633;BME280;61927;50.080;14.418;2024-01-07T02:21:07;98976.91;;;0.34;77.17
73633;BME280;61927;50.080;14.418;2024-01-07T02:23:33;98990.78;;;0.36;77.38
73633;BME280;61927;50.080;14.418;2024-01-07T02:25:59;98987.31;;;0.35;77.30
73633;BME280;61927;50.080;14.418;2024-01-07T02:28:24;98992.34;;;0.10;77.94
73633;BME280;61927;50.080;14.418;2024-01-07T02:30:50;98997.28;;;0.21;77.41
73633;BME280;61927;50.080;14.418;2024-01-07T02:33:15;99002.53;;;-0.13;78.28
73633;BME280;61927;50.080;14.418;2024-01-07T02:35:41;98998.94;;;-0.09;78.64
73633;BME280;61927;50.080;14.418;2024-01-07T02:38:06;99006.78;;;-0.09;78.67
73633;BME280;61927;50.080;14.418;2024-01-07T02:40:32;99004.66;;;0.05;78.39
73633;BME280;61927;50.080;14.418;2024-01-07T02:42:58;99001.81;;;-0.18;78.61
73633;BME280;61927;50.080;14.418;2024-01-07T02:45:23;99000.25;;;-0.25;78.55
73633;BME280;61927;50.080;14.418;2024-01-07T02:47:49;99011.69;;;-0.31;79.30
73633;BME280;61927;50.080;14.418;2024-01-07T02:50:15;99014.91;;;-0.21;78.86
73633;BME280;61927;50.080;14.418;2024-01-07T02:52:42;99008.09;;;-0.27;79.97
73633;BME280;61927;50.080;14.418;2024-01-07T02:55:08;99007.00;;;-0.18;80.58
73633;BME280;61927;50.080;14.418;2024-01-07T02:57:33;99005.69;;;-0.35;80.37
73633;BME280;61927;50.080;14.418;2024-01-07T02:59:59;99007.75;;;-0.47;80.94
73633;BME280;61927;50.080;14.418;2024-01-07T03:02:25;99010.09;;;-0.37;81.95
73633;BME280;61927;50.080;14.418;2024-01-07T03:04:50;99015.22;;;-0.34;81.45
73633;BME280;61927;50.080;14.418;2024-01-07T03:07:16;99006.91;;;-0.49;81.95
73633;BME280;61927;50.080;14.418;2024-01-07T03:09:41;99011.31;;;-0.51;81.76
73633;BME280;61927;50.080;14.418;2024-01-07T03:12:07;99006.13;;;-0.53;83.27
73633;BME280;61927;50.080;14.418;2024-01-07T03:14:33;99009.53;;;-0.49;82.65
73633;BME280;61927;50.080;14.418;2024-01-07T03:16:58;99008.53;;;-0.44;82.59
73633;BME280;61927;50.080;14.418;2024-01-07T03:19:24;99013.63;;;-0.39;82.47
73633;BME280;61927;50.080;14.418;2024-01-07T03:21:50;99009.53;;;-0.49;81.97
73633;BME280;61927;50.080;14.418;2024-01-07T03:24:15;99009.16;;;-0.34;81.88
73633;BME280;61927;50.080;14.418;2024-01-07T03:26:41;99008.75;;;-0.19;82.05
73633;BME280;61927;50.080;14.418;2024-01-07T03:29:06;99007.50;;;-0.04;80.92
73633;BME280;61927;50.080;14.418;2024-01-07T03:31:33;99009.66;;;-0.20;80.03
73633;BME280;61927;50.080;14.418;2024-01-07T03:33:58;99012.31;;;-0.21;79.90
73633;BME280;61927;50.080;14.418;2024-01-07T03:36:24;99020.28;;;-0.27;79.62
73633;BME280;61927;50.080;14.418;2024-01-07T03:38:50;99010.00;;;-0.34;79.10
73633;BME280;61927;50.080;14.418;2024-01-07T03:41:16;99017.09;;;-0.39;78.81
73633;BME280;61927;50.080;14.418;2024-01-07T03:43:44;99031.94;;;-0.42;79.21
73633;BME280;61927;50.080;14.418;2024-01-07T03:46:09;99025.66;;;-0.34;78.90
73633;BME280;61927;50.080;14.418;2024-01-07T03:48:35;99028.13;;;-0.29;78.09
73633;BME280;61927;50.080;14.418;2024-01-07T03:51:00;99036.63;;;-0.56;78.50
73633;BME280;61927;50.080;14.418;2024-01-07T03:53:26;99024.34;;;-0.51;79.50
73633;BME280;61927;50.080;14.418;2024-01-07T03:55:52;99030.16;;;-0.40;79.07
73633;BME280;61927;50.080;14.418;2024-01-07T03:58:17;99035.47;;;-0.45;78.92
73633;BME280;61927;50.080;14.418;2024-01-07T04:00:43;99031.22;;;-0.49;79.18
73633;BME280;61927;50.080;14.418;2024-01-07T04:03:09;99036.06;;;-0.34;79.44
73633;BME280;61927;50.080;14.418;2024-01-07T04:05:35;99040.22;;;-0.25;78.37
73633;BME280;61927;50.080;14.418;2024-01-07T04:08:01;99033.72;;;-0.09;78.22
73633;BME280;61927;50.080;14.418;2024-01-07T04:10:27;99036.81;;;0.06;78.46
73633;BME280;61927;50.080;14.418;2024-01-07T04:12:53;99031.81;;;-0.02;77.60
73633;BME280;61927;50.080;14.418;2024-01-07T04:15:18;99038.19;;;-0.14;77.16
73633;BME280;61927;50.080;14.418;2024-01-07T04:17:44;99047.28;;;-0.30;76.56
73633;BME280;61927;50.080;14.418;2024-01-07T04:20:13;99046.56;;;-0.37;76.37
73633;BME280;61927;50.080;14.418;2024-01-07T04:22:39;99042.22;;;-0.36;77.18
73633;BME280;61927;50.080;14.418;2024-01-07T04:25:04;99046.19;;;-0.57;77.21
73633;BME280;61927;50.080;14.418;2024-01-07T04:27:35;99044.09;;;-0.41;77.42
73633;BME280;61927;50.080;14.418;2024-01-07T04:30:01;99044.38;;;-0.18;77.28
73633;BME280;61927;50.080;14.418;2024-01-07T04:32:27;99054.91;;;-0.22;75.94
73633;BME280;61927;50.080;14.418;2024-01-07T04:34:52;99045.78;;;-0.40;76.63
73633;BME280;61927;50.080;14.418;2024-01-07T04:37:18;99059.50;;;-0.32;77.04
73633;BME280;61927;50.080;14.418;2024-01-07T04:39:43;99061.97;;;-0.63;77.85
73633;BME280;61927;50.080;14.418;2024-01-07T04:42:09;99075.31;;;-0.40;76.45
73633;BME280;61927;50.080;14.418;2024-01-07T04:44:34;99073.44;;;-0.70;78.14
73633;BME280;61927;50.080;14.418;2024-01-07T04:47:00;99069.91;;;-0.68;78.31
73633;BME280;61927;50.080;14.418;2024-01-07T04:49:25;99073.25;;;-0.62;77.72
73633;BME280;61927;50.080;14.418;2024-01-07T04:51:51;99076.72;;;-0.62;78.17
73633;BME280;61927;50.080;14.418;2024-01-07T04:54:17;99082.03;;;-0.67;77.99
73633;BME280;61927;50.080;14.418;2024-01-07T04:56:44;99077.75;;;-0.69;77.91
73633;BME280;61927;50.080;14.418;2024-01-07T04:59:09;99085.53;;;-0.68;78.06
73633;BME280;61927;50.080;14.418;2024-01-07T05:01:35;99084.63;;;-0.67;77.70
73633;BME280;61927;50.080;14.418;2024-01-07T05:04:02;99085.59;;;-0.71;77.35
73633;BME280;61927;50.080;14.418;2024-01-07T05:06:27;99088.13;;;-0.68;77.66
73633;BME280;61927;50.080;14.418;2024-01-07T05:08:53;99083.81;;;-0.69;78.33
73633;BME280;61927;50.080;14.418;2024-01-07T05:11:19;99080.91;;;-0.55;78.10
73633;BME280;61927;50.080;14.418;2024-01-07T05:13:44;99094.34;;;-0.73;77.53
73633;BME280;61927;50.080;14.418;2024-01-07T05:16:18;99092.72;;;-0.79;78.55
73633;BME280;61927;50.080;14.418;2024-01-07T05:18:44;99096.50;;;-0.93;78.53
73633;BME280;61927;50.080;14.418;2024-01-07T05:21:23;99104.91;;;-0.81;78.85
73633;BME280;61927;50.080;14.418;2024-01-07T05:23:48;99102.22;;;-0.76;78.76
73633;BME280;61927;50.080;14.418;2024-01-07T05:26:14;99103.19;;;-0.80;78.75
73633;BME280;61927;50.080;14.418;2024-01-07T05:28:40;99112.66;;;-0.78;78.43
73633;BME280;61927;50.080;14.418;2024-01-07T05:31:14;99115.44;;;-0.85;78.31
73633;BME280;61927;50.080;14.418;2024-01-07T05:33:40;99126.19;;;-1.01;79.26
73633;BME280;61927;50.080;14.418;2024-01-07T05:36:06;99117.03;;;-0.78;79.02
73633;BME280;61927;50.080;14.418;2024-01-07T05:38:31;99123.00;;;-0.73;78.38
73633;BME280;61927;50.080;14.418;2024-01-07T05:40:57;99122.38;;;-0.84;78.63
73633;BME280;61927;50.080;14.418;2024-01-07T05:43:22;99128.25;;;-0.75;78.61
73633;BME280;61927;50.080;14.418;2024-01-07T05:45:48;99128.91;;;-0.65;78.15
73633;BME280;61927;50.080;14.418;2024-01-07T05:48:13;99131.00;;;-0.82;79.27
73633;BME280;61927;50.080;14.418;2024-01-07T05:50:39;99128.25;;;-0.75;78.87
73633;BME280;61927;50.080;14.418;2024-01-07T05:53:04;99128.66;;;-0.94;78.94
73633;BME280;61927;50.080;14.418;2024-01-07T05:55:30;99119.16;;;-0.97;79.51
73633;BME280;61927;50.080;14.418;2024-01-07T05:57:56;99138.38;;;-1.03;80.03
73633;BME280;61927;50.080;14.418;2024-01-07T06:00:22;99147.94;;;-1.03;79.84
73633;BME280;61927;50.080;14.418;2024-01-07T06:02:48;99133.59;;;-0.82;79.06
73633;BME280;61927;50.080;14.418;2024-01-07T06:05:14;99152.16;;;-0.98;79.62
73633;BME280;61927;50.080;14.418;2024-01-07T06:07:39;99152.50;;;-1.14;80.42
73633;BME280;61927;50.080;14.418;2024-01-07T06:10:05;99159.50;;;-1.18;80.67
73633;BME280;61927;50.080;14.418;2024-01-07T06:12:31;99158.94;;;-1.34;80.34
73633;BME280;61927;50.080;14.418;2024-01-07T06:14:57;99164.78;;;-1.21;80.91
73633;BME280;61927;50.080;14.418;2024-01-07T06:17:22;99168.38;;;-1.28;81.21
73633;BME280;61927;50.080;14.418;2024-01-07T06:19:48;99174.50;;;-1.31;80.67
73633;BME280;61927;50.080;14.418;2024-01-07T06:22:14;99180.66;;;-1.36;80.58
73633;BME280;61927;50.080;14.418;2024-01-07T06:24:39;99182.53;;;-1.43;81.64
73633;BME280;61927;50.080;14.418;2024-01-07T06:27:05;99177.00;;;-1.26;80.90
73633;BME280;61927;50.080;14.418;2024-01-07T06:29:31;99171.59;;;-1.15;81.08
73633;BME280;61927;50.080;14.418;2024-01-07T06:31:56;99177.00;;;-1.26;80.39
73633;BME280;61927;50.080;14.418;2024-01-07T06:34:22;99196.19;;;-1.32;80.59
73633;BME280;61927;50.080;14.418;2024-01-07T06:36:48;99191.75;;;-1.25;80.99
73633;BME280;61927;50.080;14.418;2024-01-07T06:39:14;99199.44;;;-1.19;80.92
73633;BME280;61927;50.080;14.418;2024-01-07T06:41:39;99200.69;;;-1.40;80.29
73633;BME280;61927;50.080;14.418;2024-01-07T06:44:05;99203.09;;;-1.29;80.54
73633;BME280;61927;50.080;14.418;2024-01-07T06:46:31;99214.38;;;-1.28;79.75
73633;BME280;61927;50.080;14.418;2024-01-07T06:48:56;99216.97;;;-1.28;81.11
73633;BME280;61927;50.080;14.418;2024-01-07T06:51:22;99222.22;;;-1.32;81.31
73633;BME280;61927;50.080;14.418;2024-01-07T06:53:48;99216.25;;;-1.37;80.97
73633;BME280;61927;50.080;14.418;2024-01-07T06:56:15;99227.81;;;-1.53;80.55
73633;BME280;61927;50.080;14.418;2024-01-07T06:58:41;99233.88;;;-1.52;80.28
73633;BME280;61927;50.080;14.418;2024-01-07T07:01:07;99229.53;;;-1.52;81.36
73633;BME280;61927;50.080;14.418;2024-01-07T07:03:33;99239.56;;;-1.31;81.17
73633;BME280;61927;50.080;14.418;2024-01-07T07:05:58;99244.81;;;-1.34;80.45
73633;BME280;61927;50.080;14.418;2024-01-07T07:08:24;99240.41;;;-1.28;81.18
73633;BME280;61927;50.080;14.418;2024-01-07T07:10:49;99251.03;;;-1.42;80.14
73633;BME280;61927;50.080;14.418;2024-01-07T07:13:15;99249.03;;;-1.26;80.35
73633;BME280;61927;50.080;14.418;2024-01-07T07:15:40;99263.72;;;-1.22;79.70
73633;BME280;61927;50.080;14.418;2024-01-07T07:18:06;99257.66;;;-1.23;80.43
73633;BME280;61927;50.080;14.418;2024-01-07T07:20:32;99256.31;;;-1.45;79.47
73633;BME280;61927;50.080;14.418;2024-01-07T07:22:58;99262.19;;;-1.34;79.21
73633;BME280;61927;50.080;14.418;2024-01-07T07:25:23;99269.34;;;-1.48;79.20
73633;BME280;61927;50.080;14.418;2024-01-07T07:27:49;99269.25;;;-1.42;80.21
73633;BME280;61927;50.080;14.418;2024-01-07T07:30:15;99275.84;;;-1.21;79.45
73633;BME280;61927;50.080;14.418;2024-01-07T07:32:41;99283.81;;;-1.31;79.01
73633;BME280;61927;50.080;14.418;2024-01-07T07:35:07;99286.97;;;-1.12;78.61
73633;BME280;61927;50.080;14.418;2024-01-07T07:37:33;99287.94;;;-1.19;77.96
73633;BME280;61927;50.080;14.418;2024-01-07T07:39:58;99288.53;;;-1.03;77.71
73633;BME280;61927;50.080;14.418;2024-01-07T07:42:24;99293.94;;;-1.14;76.96
73633;BME280;61927;50.080;14.418;2024-01-07T07:44:50;99283.88;;;-1.35;75.97
73633;BME280;61927;50.080;14.418;2024-01-07T07:47:15;99287.38;;;-1.36;77.08
73633;BME280;61927;50.080;14.418;2024-01-07T07:49:41;99289.28;;;-1.46;77.24
73633;BME280;61927;50.080;14.418;2024-01-07T07:52:09;99297.81;;;-1.38;76.83
73633;BME280;61927;50.080;14.418;2024-01-07T07:54:36;99289.28;;;-1.46;76.71
73633;BME280;61927;50.080;14.418;2024-01-07T07:57:02;99288.09;;;-1.28;77.38
73633;BME280;61927;50.080;14.418;2024-01-07T07:59:28;99302.44;;;-1.04;77.07
73633;BME280;61927;50.080;14.418;2024-01-07T08:01:54;99296.72;;;-1.24;76.82
73633;BME280;61927;50.080;14.418;2024-01-07T08:04:19;99308.09;;;-1.30;75.76
73633;BME280;61927;50.080;14.418;2024-01-07T08:06:45;99304.91;;;-1.47;77.25
73633;BME280;61927;50.080;14.418;2024-01-07T08:09:11;99313.31;;;-1.30;75.59
73633;BME280;61927;50.080;14.418;2024-01-07T08:11:37;99308.25;;;-1.39;76.65
73633;BME280;61927;50.080;14.418;2024-01-07T08:14:02;99311.53;;;-1.28;76.24
73633;BME280;61927;50.080;14.418;2024-01-07T08:16:28;99326.16;;;-1.21;76.00
73633;BME280;61927;50.080;14.418;2024-01-07T08:18:53;99322.00;;;-1.31;76.45
73633;BME280;61927;50.080;14.418;2024-01-07T08:21:22;99321.50;;;-1.02;76.24
73633;BME280;61927;50.080;14.418;2024-01-07T08:23:50;99327.16;;;-0.79;75.82
73633;BME280;61927;50.080;14.418;2024-01-07T08:26:20;99330.59;;;-0.75;75.70
73633;BME280;61927;50.080;14.418;2024-01-07T08:28:45;99331.78;;;-0.93;74.45
73633;BME280;61927;50.080;14.418;2024-01-07T08:31:11;99342.53;;;-1.13;74.69
73633;BME280;61927;50.080;14.418;2024-01-07T08:33:36;99342.78;;;-1.28;74.46
73633;BME280;61927;50.080;14.418;2024-01-07T08:36:02;99351.50;;;-1.32;74.72
73633;BME280;61927;50.080;14.418;2024-01-07T08:38:27;99353.41;;;-1.43;75.54
73633;BME280;61927;50.080;14.418;2024-01-07T08:40:53;99367.25;;;-1.40;75.98
73633;BME280;61927;50.080;14.418;2024-01-07T08:43:19;99370.94;;;-1.54;75.86
73633;BME280;61927;50.080;14.418;2024-01-07T08:45:44;99360.53;;;-1.56;75.59
73633;BME280;61927;50.080;14.418;2024-01-07T08:48:10;99361.97;;;-1.35;75.88
73633;BME280;61927;50.080;14.418;2024-01-07T08:50:38;99362.06;;;-1.41;75.86
73633;BME280;61927;50.080;14.418;2024-01-07T08:53:04;99369.06;;;-1.46;76.02
73633;BME280;61927;50.080;14.418;2024-01-07T08:55:30;99367.31;;;-1.44;75.50
73633;BME280;61927;50.080;14.418;2024-01-07T08:57:56;99380.28;;;-1.41;75.95
73633;BME280;61927;50.080;14.418;2024-01-07T09:00:22;99373.78;;;-1.14;75.42
73633;BME280;61927;50.080;14.418;2024-01-07T09:02:51;99379.00;;;-1.14;74.50
73633;BME280;61927;50.080;14.418;2024-01-07T09:05:17;99376.59;;;-1.26;75.25
73633;BME280;61927;50.080;14.418;2024-01-07T09:07:43;99381.69;;;-1.19;75.17
73633;BME280;61927;50.080;14.418;2024-01-07T09:10:09;99375.59;;;-1.19;74.56
73633;BME280;61927;50.080;14.418;2024-01-07T09:12:39;99378.34;;;-1.28;73.93
73633;BME280;61927;50.080;14.418;2024-01-07T09:15:05;99388.72;;;-1.25;75.53
73633;BME280;61927;50.080;14.418;2024-01-07T09:17:37;99383.59;;;-1.30;75.03
73633;BME280;61927;50.080;14.418;2024-01-07T09:20:04;99382.91;;;-1.43;75.21
73633;BME280;61927;50.080;14.418;2024-01-07T09:22:32;99390.75;;;-1.46;75.68
73633;BME280;61927;50.080;14.418;2024-01-07T09:24:58;99390.88;;;-1.53;75.10
73633;BME280;61927;50.080;14.418;2024-01-07T09:27:23;99397.59;;;-1.39;75.02
73633;BME280;61927;50.080;14.418;2024-01-07T09:29:49;99404.66;;;-1.47;74.46
73633;BME280;61927;50.080;14.418;2024-01-07T09:32:14;99407.22;;;-1.44;73.91
73633;BME280;61927;50.080;14.418;2024-01-07T09:34:40;99398.50;;;-1.41;74.46
73633;BME280;61927;50.080;14.418;2024-01-07T09:37:05;99404.66;;;-1.47;74.37
73633;BME280;61927;50.080;14.418;2024-01-07T09:39:31;99405.53;;;-1.48;74.13
73633;BME280;61927;50.080;14.418;2024-01-07T09:41:57;99390.59;;;-1.35;73.80
73633;BME280;61927;50.080;14.418;2024-01-07T09:44:23;99404.56;;;-1.41;73.57
73633;BME280;61927;50.080;14.418;2024-01-07T09:46:49;99405.47;;;-1.43;73.18
73633;BME280;61927;50.080;14.418;2024-01-07T09:49:17;99397.50;;;-1.33;73.88
73633;BME280;61927;50.080;14.418;2024-01-07T09:51:45;99405.50;;;-1.46;74.10
73633;BME280;61927;50.080;14.418;2024-01-07T09:54:16;99414.44;;;-1.66;73.39
73633;BME280;61927;50.080;14.418;2024-01-07T09:56:50;99399.63;;;-1.59;73.98
73633;BME280;61927;50.080;14.418;2024-01-07T09:59:20;99405.78;;;-1.66;73.24
73633;BME280;61927;50.080;14.418;2024-01-07T10:01:46;99402.19;;;-1.57;73.58
73633;BME280;61927;50.080;14.418;2024-01-07T10:04:13;99393.19;;;-1.35;72.36
73633;BME280;61927;50.080;14.418;2024-01-07T10:06:38;99401.09;;;-1.41;72.26
73633;BME280;61927;50.080;14.418;2024-01-07T10:09:06;99411.50;;;-1.41;72.06
73633;BME280;61927;50.080;14.418;2024-01-07T10:11:32;99402.94;;;-1.49;72.32
73633;BME280;61927;50.080;14.418;2024-01-07T10:13:58;99416.22;;;-1.69;72.58
73633;BME280;61927;50.080;14.418;2024-01-07T10:16:23;99407.34;;;-1.54;72.57
73633;BME280;61927;50.080;14.418;2024-01-07T10:18:49;99402.03;;;-1.45;71.91
73633;BME280;61927;50.080;14.418;2024-01-07T10:21:15;99394.09;;;-1.36;72.13
73633;BME280;61927;50.080;14.418;2024-01-07T10:23:40;99399.34;;;-1.41;71.66
73633;BME280;61927;50.080;14.418;2024-01-07T10:26:06;99396.28;;;-1.10;70.37
73633;BME280;61927;50.080;14.418;2024-01-07T10:28:32;99400.06;;;-1.29;70.59
73633;BME280;61927;50.080;14.418;2024-01-07T10:30:58;99407.19;;;-1.42;69.70
73633;BME280;61927;50.080;14.418;2024-01-07T10:33:23;99407.06;;;-1.35;71.08
73633;BME280;61927;50.080;14.418;2024-01-07T10:35:54;99425.13;;;-1.22;69.97
73633;BME280;61927;50.080;14.418;2024-01-07T10:38:21;99409.97;;;-1.54;69.57
73633;BME280;61927;50.080;14.418;2024-01-07T10:40:49;99426.22;;;-1.39;70.32
73633;BME280;61927;50.080;14.418;2024-01-07T10:43:16;99417.59;;;-1.42;69.67
73633;BME280;61927;50.080;14.418;2024-01-07T10:45:45;99419.19;;;-1.32;69.85
73633;BME280;61927;50.080;14.418;2024-01-07T10:48:17;99428.56;;;-1.20;69.68
73633;BME280;61927;50.080;14.418;2024-01-07T10:50:45;99418.41;;;-1.39;68.91
73633;BME280;61927;50.080;14.418;2024-01-07T10:53:14;99418.97;;;-1.17;69.10
73633;BME280;61927;50.080;14.418;2024-01-07T10:55:43;99424.16;;;-1.15;67.68
73633;BME280;61927;50.080;14.418;2024-01-07T10:58:10;99423.47;;;-1.29;67.73
73633;BME280;61927;50.080;14.418;2024-01-07T11:00:36;99430.47;;;-1.32;67.26
73633;BME280;61927;50.080;14.418;2024-01-07T11:03:27;99424.78;;;-1.59;67.87
73633;BME280;61927;50.080;14.418;2024-01-07T11:06:09;99428.88;;;-1.42;67.74
73633;BME280;61927;50.080;14.418;2024-01-07T11:08:43;99427.94;;;-1.38;68.24
73633;BME280;61927;50.080;14.418;2024-01-07T11:11:19;99430.47;;;-1.32;67.70
73633;BME280;61927;50.080;14.418;2024-01-07T11:13:49;99417.03;;;-1.04;67.48
73633;BME280;61927;50.080;14.418;2024-01-07T11:16:40;99417.84;;;-1.01;67.56
73633;BME280;61927;50.080;14.418;2024-01-07T11:19:06;99437.44;;;-1.34;67.84
73633;BME280;61927;50.080;14.418;2024-01-07T11:21:32;99428.16;;;-1.53;67.34
73633;BME280;61927;50.080;14.418;2024-01-07T11:23:57;99432.50;;;-1.55;67.90
73633;BME280;61927;50.080;14.418;2024-01-07T11:26:23;99428.28;;;-1.64;67.68
73633;BME280;61927;50.080;14.418;2024-01-07T11:28:52;99431.63;;;-1.52;66.68
73633;BME280;61927;50.080;14.418;2024-01-07T11:34:07;99436.66;;;-1.40;66.73
73633;BME280;61927;50.080;14.418;2024-01-07T11:36:35;99431.56;;;-1.49;67.41
73633;BME280;61927;50.080;14.418;2024-01-07T11:39:01;99432.41;;;-1.47;67.12
73633;BME280;61927;50.080;14.418;2024-01-07T11:41:29;99436.88;;;-1.55;66.73
73633;BME280;61927;50.080;14.418;2024-01-07T11:43:58;99434.91;;;-1.40;66.82
73633;BME280;61927;50.080;14.418;2024-01-07T11:46:26;99438.19;;;-1.27;66.90
73633;BME280;61927;50.080;14.418;2024-01-07T11:48:58;99433.22;;;-1.44;66.24
73633;BME280;61927;50.080;14.418;2024-01-07T11:51:28;99430.75;;;-1.53;66.35
73633;BME280;61927;50.080;14.418;2024-01-07T11:53:57;99427.78;;;-1.27;66.75
73633;BME280;61927;50.080;14.418;2024-01-07T11:56:22;99444.53;;;-1.46;66.21
73633;BME280;61927;50.080;14.418;2024-01-07T11:58:49;99439.47;;;-1.55;66.02
73633;BME280;61927;50.080;14.418;2024-01-07T12:01:15;99430.72;;;-1.51;65.88
73633;BME280;61927;50.080;14.418;2024-01-07T12:03:44;99430.13;;;-1.70;66.34
73633;BME280;61927;50.080;14.418;2024-01-07T12:06:10;99426.50;;;-1.60;67.04
73633;BME280;61927;50.080;14.418;2024-01-07T12:08:45;99439.63;;;-1.68;66.94
73633;BME280;61927;50.080;14.418;2024-01-07T12:11:12;99433.53;;;-1.67;65.94
73633;BME280;61927;50.080;14.418;2024-01-07T12:13:39;99445.69;;;-1.69;66.13
73633;BME280;61927;50.080;14.418;2024-01-07T12:16:05;99431.88;;;-1.72;65.95
73633;BME280;61927;50.080;14.418;2024-01-07T12:18:31;99431.81;;;-1.66;66.34
73633;BME280;61927;50.080;14.418;2024-01-07T12:20:57;99451.94;;;-1.82;66.63
73633;BME280;61927;50.080;14.418;2024-01-07T12:23:25;99442.41;;;-1.83;66.39
73633;BME280;61927;50.080;14.418;2024-01-07T12:25:54;99445.84;;;-1.81;66.35
73633;BME280;61927;50.080;14.418;2024-01-07T12:28:21;99455.53;;;-1.92;66.46
73633;BME280;61927;50.080;14.418;2024-01-07T12:30:50;99463.88;;;-1.66;66.38
73633;BME280;61927;50.080;14.418;2024-01-07T12:33:17;99462.97;;;-1.61;65.59
73633;BME280;61927;50.080;14.418;2024-01-07T12:35:45;99461.47;;;-1.81;64.95
73633;BME280;61927;50.080;14.418;2024-01-07T12:38:12;99451.47;;;-1.45;65.68
73633;BME280;61927;50.080;14.418;2024-01-07T12:40:37;99449.69;;;-1.42;65.13
73633;BME280;61927;50.080;14.418;2024-01-07T12:43:05;99477.63;;;-1.56;65.10
73633;BME280;61927;50.080;14.418;2024-01-07T12:45:32;99458.59;;;-1.59;65.41
73633;BME280;61927;50.080;14.418;2024-01-07T12:47:58;99465.19;;;-1.34;64.57
73633;BME280;61927;50.080;14.418;2024-01-07T12:50:27;99465.81;;;-1.83;64.64
73633;BME280;61927;50.080;14.418;2024-01-07T12:52:55;99478.50;;;-1.57;65.09